createdAt,value
2022-10-31T00:25:02.465Z,18.4
2022-10-31T00:40:06.423Z,18.4
2022-10-31T00:55:03.451Z,18.5
2022-10-31T01:10:05.720Z,18.5
2022-10-31T01:40:02.751Z,18.5
2022-10-31T01:55:02.594Z,18.5
2022-10-31T02:35:02.768Z,18.4
2022-10-31T03:05:02.679Z,18.4
2022-10-31T03:20:05.509Z,18.4
2022-10-31T03:50:05.591Z,18.4
2022-10-31T04:05:06.592Z,18.4
2022-10-31T04:20:03.523Z,18.5
2022-10-31T04:35:04.367Z,18.6
2022-10-31T04:50:03.562Z,18.8
2022-10-31T05:05:02.874Z,19.1
2022-10-31T05:25:05.369Z,19.4
2022-10-31T05:40:04.545Z,19.7
2022-10-31T05:55:06.863Z,20
2022-10-31T06:10:03.747Z,20.4
2022-10-31T06:25:06.513Z,20.8
2022-10-31T06:40:05.514Z,21.1
2022-10-31T07:00:06.838Z,21.3
2022-10-31T07:15:06.421Z,21.5
2022-10-31T07:30:03.960Z,21.7
2022-10-31T07:45:05.921Z,21.7
2022-10-31T08:00:06.856Z,21.8
2022-10-31T08:15:04.756Z,21.8
2022-10-31T08:30:05.401Z,21.7
2022-10-31T08:45:03.492Z,21.7
2022-10-31T09:00:06.902Z,21.7
2022-10-31T09:35:02.409Z,21.6
2022-10-31T09:50:04.830Z,21.6
2022-10-31T10:05:04.421Z,21.6
2022-10-31T10:20:05.712Z,21.5
2022-10-31T10:35:03.756Z,21.5
2022-10-31T10:50:02.590Z,21.4
2022-10-31T11:20:03.584Z,21.3
2022-10-31T11:40:05.585Z,21.3
2022-10-31T11:55:03.541Z,21.3
2022-10-31T12:15:04.408Z,21.3
2022-10-31T12:30:02.686Z,21.3
2022-10-31T12:45:04.605Z,21.2
2022-10-31T13:00:06.428Z,21.2
2022-10-31T13:15:02.460Z,21.2
2022-10-31T13:50:03.527Z,21.2
2022-10-31T14:20:02.723Z,21.2
2022-10-31T14:40:04.917Z,21.2
2022-10-31T15:10:03.544Z,21.2
2022-10-31T15:40:02.742Z,21.2
2022-10-31T15:55:02.800Z,21.3
2022-10-31T16:25:04.624Z,21.4
2022-10-31T16:40:05.930Z,21.4
2022-10-31T17:00:02.801Z,21.5
2022-10-31T17:30:06.687Z,21.5
2022-10-31T17:45:05.704Z,21.6
2022-10-31T18:00:03.367Z,21.6
2022-10-31T18:15:04.778Z,21.6
2022-10-31T18:30:03.453Z,21.7
2022-10-31T18:45:03.814Z,21.7
2022-10-31T19:00:05.693Z,21.7
2022-10-31T19:15:06.691Z,21.6
2022-10-31T19:30:03.594Z,21.5
2022-10-31T19:45:02.494Z,21.3
2022-10-31T20:00:02.737Z,21.1
2022-10-31T20:15:04.721Z,20.9
2022-10-31T20:30:05.886Z,20.8
2022-10-31T20:45:04.431Z,20.5
2022-10-31T21:00:04.609Z,20.3
2022-10-31T21:15:06.753Z,20.1
2022-10-31T21:30:05.782Z,19.9
2022-10-31T21:45:02.407Z,19.6
2022-10-31T22:00:05.381Z,19.5
2022-10-31T22:15:05.375Z,19.3
2022-10-31T22:30:05.445Z,19.2
2022-10-31T22:45:04.570Z,19.2
2022-10-31T23:00:03.730Z,19.1
2022-10-31T23:15:04.493Z,19.1
2022-10-31T23:30:05.773Z,19.1
2022-10-31T23:45:06.940Z,19.1
